createdAt,value
2022-07-26T00:01:00.984Z,19.20
2022-07-26T00:03:28.856Z,19.10
2022-07-26T00:05:58.072Z,19.10
2022-07-26T00:08:25.949Z,19.10
2022-07-26T00:10:53.805Z,19.10
2022-07-26T00:13:21.859Z,19.10
2022-07-26T00:15:50.256Z,19.00
2022-07-26T00:18:18.838Z,19.00
2022-07-26T00:20:47.069Z,19.00
2022-07-26T00:23:16.508Z,19.00
2022-07-26T00:25:44.421Z,19.00
2022-07-26T00:28:12.477Z,18.90
2022-07-26T00:30:40.445Z,19.00
2022-07-26T00:33:08.376Z,19.00
2022-07-26T00:35:36.383Z,18.90
2022-07-26T00:38:04.210Z,18.80
2022-07-26T00:40:33.877Z,18.80
2022-07-26T00:43:01.730Z,18.70
2022-07-26T00:45:29.649Z,18.80
2022-07-26T00:47:57.461Z,18.90
2022-07-26T00:50:25.292Z,19.00
2022-07-26T00:52:53.135Z,18.90
2022-07-26T00:55:21.097Z,19.00
2022-07-26T00:57:50.301Z,18.90
2022-07-26T01:00:21.298Z,18.90
2022-07-26T01:02:49.208Z,19.00
2022-07-26T01:05:17.529Z,19.00
2022-07-26T01:07:45.409Z,18.90
2022-07-26T01:10:13.315Z,18.80
2022-07-26T01:12:41.277Z,18.80
2022-07-26T01:15:11.571Z,18.80
2022-07-26T01:17:39.731Z,18.90
2022-07-26T01:20:09.086Z,18.90
2022-07-26T01:22:38.593Z,18.90
2022-07-26T01:25:07.118Z,18.90
2022-07-26T01:27:39.322Z,18.90
2022-07-26T01:30:09.021Z,18.90
2022-07-26T01:32:36.930Z,19.00
2022-07-26T01:35:06.929Z,18.90
2022-07-26T01:37:34.777Z,18.90
2022-07-26T01:40:04.776Z,18.80
2022-07-26T01:42:35.017Z,18.80
2022-07-26T01:45:02.888Z,19.00
2022-07-26T01:47:30.746Z,19.00
2022-07-26T01:49:58.559Z,19.00
2022-07-26T01:52:26.405Z,19.00
2022-07-26T01:54:54.311Z,19.00
2022-07-26T01:57:23.500Z,19.00
2022-07-26T01:59:51.445Z,19.00
2022-07-26T02:02:19.399Z,18.90
2022-07-26T02:04:59.418Z,18.90
2022-07-26T02:07:27.621Z,18.90
2022-07-26T02:09:56.921Z,18.90
2022-07-26T02:12:27.418Z,19.00
2022-07-26T02:14:55.250Z,18.90
2022-07-26T02:17:23.111Z,18.90
2022-07-26T02:19:52.363Z,19.00
2022-07-26T02:22:20.585Z,19.00
2022-07-26T02:24:48.777Z,19.10
2022-07-26T02:27:16.669Z,19.10
2022-07-26T02:29:46.146Z,19.00
2022-07-26T02:32:14.035Z,19.10
2022-07-26T02:34:41.888Z,19.10
2022-07-26T02:37:09.847Z,19.10
2022-07-26T02:39:37.689Z,19.10
2022-07-26T02:42:05.667Z,19.20
2022-07-26T02:44:34.891Z,19.10
2022-07-26T02:47:05.115Z,19.10
2022-07-26T02:49:33.039Z,19.10
2022-07-26T02:52:00.903Z,19.10
2022-07-26T02:54:28.738Z,19.10
2022-07-26T02:56:56.533Z,19.10
2022-07-26T02:59:24.364Z,19.10
2022-07-26T03:01:52.229Z,18.90
2022-07-26T03:04:21.528Z,18.90
2022-07-26T03:06:49.341Z,19.00
2022-07-26T03:09:17.197Z,19.00
2022-07-26T03:11:45.045Z,19.00
2022-07-26T03:14:12.901Z,19.00
2022-07-26T03:16:40.779Z,19.00
2022-07-26T03:19:08.643Z,19.10
2022-07-26T03:21:37.889Z,19.00
2022-07-26T03:24:06.460Z,19.00
2022-07-26T03:26:34.548Z,19.00
2022-07-26T03:29:02.393Z,19.00
2022-07-26T03:31:30.404Z,19.00
2022-07-26T03:34:02.994Z,19.00
2022-07-26T03:36:31.494Z,19.10
2022-07-26T03:39:00.691Z,19.10
2022-07-26T03:41:28.602Z,19.10
2022-07-26T03:43:56.422Z,19.20
2022-07-26T03:46:24.326Z,19.20
2022-07-26T03:48:52.275Z,19.20
2022-07-26T03:51:20.195Z,19.20
2022-07-26T03:53:48.041Z,19.20
2022-07-26T03:56:36.786Z,19.10
2022-07-26T03:59:05.958Z,19.10
2022-07-26T04:01:34.970Z,19.10
2022-07-26T04:04:02.988Z,19.10
2022-07-26T04:06:30.867Z,19.00
2022-07-26T04:08:58.725Z,19.00
2022-07-26T04:11:28.876Z,19.00
2022-07-26T04:13:56.915Z,19.10
2022-07-26T04:16:24.827Z,19.20
2022-07-26T04:18:52.836Z,19.20
2022-07-26T04:21:20.837Z,19.20
2022-07-26T04:23:51.299Z,19.30
2022-07-26T04:26:19.813Z,19.30
2022-07-26T04:28:49.132Z,19.30
2022-07-26T04:31:17.118Z,19.30
2022-07-26T04:33:45.053Z,19.40
2022-07-26T04:36:12.935Z,19.30
2022-07-26T04:38:40.767Z,19.20
2022-07-26T04:41:08.709Z,19.20
2022-07-26T04:43:36.527Z,19.20
2022-07-26T04:46:05.800Z,19.20
2022-07-26T04:48:33.761Z,19.20
2022-07-26T04:51:01.749Z,19.30
2022-07-26T04:53:29.560Z,19.30
2022-07-26T04:55:57.389Z,19.20
2022-07-26T04:58:25.274Z,19.30
2022-07-26T05:01:10.477Z,19.40
2022-07-26T05:03:40.658Z,19.40
2022-07-26T05:06:08.641Z,19.50
2022-07-26T05:08:36.489Z,19.50
2022-07-26T05:11:04.624Z,19.60
2022-07-26T05:13:32.498Z,19.60
2022-07-26T05:16:01.749Z,19.60
2022-07-26T05:18:49.230Z,19.60
2022-07-26T05:21:18.011Z,19.60
2022-07-26T05:23:45.866Z,19.60
2022-07-26T05:26:13.720Z,19.70
2022-07-26T05:28:41.577Z,19.60
2022-07-26T05:31:09.474Z,19.70
2022-07-26T05:33:37.382Z,19.70
2022-07-26T05:36:07.113Z,19.60
2022-07-26T05:38:35.005Z,19.70
2022-07-26T05:41:03.087Z,19.70
2022-07-26T05:43:41.126Z,19.70
2022-07-26T05:46:10.519Z,20.00
2022-07-26T05:48:38.688Z,19.90
2022-07-26T05:51:08.031Z,19.90
2022-07-26T05:53:35.906Z,20.00
2022-07-26T05:56:03.833Z,20.10
2022-07-26T05:58:31.849Z,20.20
2022-07-26T06:00:59.652Z,20.30
2022-07-26T06:03:27.523Z,20.30
2022-07-26T06:05:56.692Z,20.40
2022-07-26T06:08:26.610Z,20.60
2022-07-26T06:10:54.711Z,20.60
2022-07-26T06:13:22.766Z,20.90
2022-07-26T06:15:52.542Z,21.10
2022-07-26T06:18:20.441Z,21.30
2022-07-26T06:20:48.851Z,21.10
2022-07-26T06:23:16.714Z,21.10
2022-07-26T06:25:45.944Z,21.00
2022-07-26T06:28:13.797Z,20.50
2022-07-26T06:30:41.608Z,20.50
2022-07-26T06:33:09.868Z,20.50
2022-07-26T06:35:39.194Z,20.90
2022-07-26T06:38:07.242Z,21.30
2022-07-26T06:40:35.146Z,21.50
2022-07-26T06:43:04.871Z,21.60
2022-07-26T06:45:33.146Z,22.10
2022-07-26T06:48:01.113Z,22.10
2022-07-26T06:50:29.108Z,22.10
2022-07-26T06:52:56.956Z,22.30
2022-07-26T06:55:25.040Z,22.40
2022-07-26T06:57:52.879Z,22.20
2022-07-26T07:00:22.165Z,22.40
2022-07-26T07:02:50.008Z,22.30
2022-07-26T07:05:17.942Z,22.20
2022-07-26T07:07:45.941Z,22.30
2022-07-26T07:10:14.304Z,22.50
2022-07-26T07:12:44.760Z,22.50
2022-07-26T07:15:12.842Z,22.50
2022-07-26T07:17:42.027Z,22.70
2022-07-26T07:20:10.370Z,22.90
2022-07-26T07:22:38.231Z,22.30
2022-07-26T07:25:06.604Z,22.50
2022-07-26T07:27:34.475Z,22.70
2022-07-26T07:30:02.377Z,22.70
2022-07-26T07:32:32.163Z,22.60
2022-07-26T07:35:01.480Z,22.40
2022-07-26T07:37:52.292Z,22.60
2022-07-26T07:40:17.400Z,22.50
2022-07-26T07:42:45.431Z,22.50
2022-07-26T07:45:13.307Z,22.40
2022-07-26T07:47:41.132Z,22.50
2022-07-26T07:50:10.674Z,22.20
2022-07-26T07:52:38.602Z,22.10
2022-07-26T07:55:37.677Z,22.20
2022-07-26T07:57:57.065Z,22.00
2022-07-26T08:00:27.181Z,22.10
2022-07-26T08:02:55.403Z,22.30
2022-07-26T08:05:24.982Z,22.20
2022-07-26T08:07:52.881Z,22.00
2022-07-26T08:10:22.204Z,22.00
2022-07-26T08:12:51.260Z,22.00
2022-07-26T08:15:19.724Z,22.00
2022-07-26T08:17:53.911Z,22.10
2022-07-26T08:20:25.081Z,21.70
2022-07-26T08:22:53.246Z,21.80
2022-07-26T08:25:21.109Z,21.90
2022-07-26T08:28:03.214Z,22.10
2022-07-26T08:30:31.623Z,22.10
2022-07-26T08:32:59.522Z,22.20
2022-07-26T08:35:30.125Z,22.20
2022-07-26T08:37:58.183Z,22.30
2022-07-26T08:40:26.019Z,22.30
2022-07-26T08:42:54.689Z,22.60
2022-07-26T08:45:22.980Z,22.60
2022-07-26T08:48:16.188Z,22.90
2022-07-26T08:50:40.829Z,22.70
2022-07-26T08:53:11.967Z,22.70
2022-07-26T08:56:05.407Z,22.50
2022-07-26T08:58:27.982Z,23.00
2022-07-26T09:01:04.890Z,23.10
2022-07-26T09:03:33.230Z,23.40
2022-07-26T09:06:13.335Z,23.50
2022-07-26T09:08:41.221Z,23.60
2022-07-26T09:11:33.162Z,23.70
2022-07-26T09:14:02.154Z,23.70
2022-07-26T09:16:30.386Z,23.90
2022-07-26T09:19:17.700Z,24.20
2022-07-26T09:21:47.504Z,24.40
2022-07-26T09:24:30.247Z,24.80
2022-07-26T09:26:58.484Z,24.60
2022-07-26T09:29:26.342Z,24.30
2022-07-26T09:31:54.314Z,24.80
2022-07-26T09:34:25.593Z,25.10
2022-07-26T09:36:55.708Z,25.30
2022-07-26T09:39:33.440Z,24.90
2022-07-26T09:42:26.866Z,25.40
2022-07-26T09:44:55.908Z,26.40
2022-07-26T09:47:24.143Z,27.00
2022-07-26T09:50:11.687Z,27.80
2022-07-26T09:52:41.205Z,28.10
2022-07-26T09:55:09.707Z,27.90
2022-07-26T09:57:37.643Z,28.20
2022-07-26T10:00:06.458Z,27.50
2022-07-26T10:02:35.886Z,27.00
2022-07-26T10:05:03.852Z,27.70
2022-07-26T10:07:31.779Z,28.10
2022-07-26T10:10:03.122Z,28.60
2022-07-26T10:12:32.361Z,28.10
2022-07-26T10:15:00.234Z,28.20
2022-07-26T10:17:46.050Z,27.70
2022-07-26T10:20:28.753Z,27.90
2022-07-26T10:22:56.582Z,28.00
2022-07-26T10:25:43.021Z,27.70
2022-07-26T10:28:23.590Z,27.90
2022-07-26T10:30:51.502Z,27.90
2022-07-26T10:33:19.621Z,27.40
2022-07-26T10:35:47.663Z,27.00
2022-07-26T10:38:23.315Z,26.70
2022-07-26T10:40:56.975Z,27.10
2022-07-26T10:43:42.816Z,27.10
2022-07-26T10:46:25.093Z,26.80
2022-07-26T10:48:56.682Z,26.80
2022-07-26T10:51:25.775Z,26.00
2022-07-26T10:54:00.522Z,25.90
2022-07-26T10:56:32.854Z,25.60
2022-07-26T10:59:02.847Z,25.60
2022-07-26T11:01:33.802Z,25.60
2022-07-26T11:04:01.882Z,25.40
2022-07-26T11:06:30.836Z,25.20
2022-07-26T11:08:58.699Z,25.10
2022-07-26T11:11:30.692Z,25.00
2022-07-26T11:14:07.463Z,25.00
2022-07-26T11:16:39.332Z,25.20
2022-07-26T11:19:14.500Z,25.20
2022-07-26T11:21:42.711Z,25.40
2022-07-26T11:24:11.040Z,25.50
2022-07-26T11:26:42.516Z,26.20
2022-07-26T11:29:16.690Z,26.40
2022-07-26T11:31:51.420Z,26.20
2022-07-26T11:34:28.318Z,26.20
2022-07-26T11:36:56.983Z,25.90
2022-07-26T11:39:25.642Z,26.10
2022-07-26T11:41:57.641Z,25.90
2022-07-26T11:44:26.970Z,25.50
2022-07-26T11:46:54.931Z,25.60
2022-07-26T11:49:41.490Z,25.20
2022-07-26T11:52:12.060Z,25.70
2022-07-26T11:54:45.093Z,26.20
2022-07-26T11:57:13.660Z,26.10
2022-07-26T11:59:44.779Z,25.80
2022-07-26T12:02:13.392Z,25.70
2022-07-26T12:04:42.602Z,26.10
2022-07-26T12:07:11.423Z,25.80
2022-07-26T12:09:40.206Z,25.70
2022-07-26T12:12:08.910Z,25.30
2022-07-26T12:14:38.335Z,25.40
2022-07-26T12:17:14.780Z,25.40
2022-07-26T12:19:42.950Z,25.50
2022-07-26T12:22:13.329Z,25.60
2022-07-26T12:24:42.740Z,25.50
2022-07-26T12:27:11.471Z,25.20
2022-07-26T12:29:39.630Z,25.30
2022-07-26T12:32:12.244Z,25.10
2022-07-26T12:34:43.252Z,25.00
2022-07-26T12:37:20.009Z,25.10
2022-07-26T12:40:00.894Z,25.10
2022-07-26T12:42:33.046Z,25.30
2022-07-26T12:45:03.157Z,25.30
2022-07-26T12:47:31.096Z,25.40
2022-07-26T12:50:01.348Z,25.50
2022-07-26T12:52:29.396Z,25.40
2022-07-26T12:54:57.273Z,25.50
2022-07-26T12:57:25.127Z,25.60
2022-07-26T12:59:52.943Z,25.60
2022-07-26T13:02:21.258Z,25.80
2022-07-26T13:04:49.495Z,26.00
2022-07-26T13:07:19.856Z,26.00
2022-07-26T13:09:52.300Z,26.30
2022-07-26T13:12:26.578Z,26.40
2022-07-26T13:14:54.449Z,26.40
2022-07-26T13:17:22.291Z,26.00
2022-07-26T13:19:50.191Z,26.00
2022-07-26T13:22:19.478Z,25.90
2022-07-26T13:24:51.263Z,25.60
2022-07-26T13:27:19.191Z,25.50
2022-07-26T13:29:47.068Z,25.50
2022-07-26T13:32:15.187Z,25.60
2022-07-26T13:34:43.547Z,25.70
2022-07-26T13:37:11.446Z,25.60
2022-07-26T13:39:40.635Z,25.50
2022-07-26T13:42:08.624Z,25.30
2022-07-26T13:44:36.530Z,25.40
2022-07-26T13:47:04.479Z,25.10
2022-07-26T13:49:32.427Z,25.10
2022-07-26T13:52:00.580Z,25.20
2022-07-26T13:54:29.878Z,25.10
2022-07-26T13:56:59.778Z,24.80
2022-07-26T13:59:28.201Z,25.00
2022-07-26T14:01:56.323Z,25.10
2022-07-26T14:04:24.444Z,24.90
2022-07-26T14:06:52.838Z,24.80
2022-07-26T14:09:21.009Z,24.80
2022-07-26T14:11:49.009Z,24.80
2022-07-26T14:14:18.317Z,24.70
2022-07-26T14:16:49.356Z,24.80
2022-07-26T14:19:17.647Z,24.60
2022-07-26T14:21:47.285Z,24.30
2022-07-26T14:24:26.891Z,24.50
2022-07-26T14:26:58.853Z,24.50
2022-07-26T14:29:29.100Z,24.30
2022-07-26T14:31:57.147Z,24.20
2022-07-26T14:34:25.102Z,24.30
2022-07-26T14:36:52.991Z,24.20
2022-07-26T14:39:20.836Z,23.90
2022-07-26T14:41:48.681Z,24.00
2022-07-26T14:44:16.559Z,24.00
2022-07-26T14:46:46.500Z,24.20
2022-07-26T14:49:14.496Z,24.50
2022-07-26T14:51:42.469Z,24.60
2022-07-26T14:54:10.822Z,24.50
2022-07-26T14:56:38.951Z,24.60
2022-07-26T14:59:06.806Z,24.40
2022-07-26T15:01:34.920Z,24.20
2022-07-26T15:04:05.156Z,24.40
2022-07-26T15:06:33.069Z,24.40
2022-07-26T15:09:00.990Z,24.30
2022-07-26T15:11:28.904Z,24.20
2022-07-26T15:13:56.893Z,24.30
2022-07-26T15:16:26.097Z,24.20
2022-07-26T15:18:53.973Z,24.40
2022-07-26T15:21:23.186Z,24.20
2022-07-26T15:23:51.201Z,24.40
2022-07-26T15:26:19.100Z,24.30
2022-07-26T15:28:47.199Z,23.90
2022-07-26T15:31:15.161Z,23.80
2022-07-26T15:33:43.073Z,23.90
2022-07-26T15:36:11.138Z,23.80
2022-07-26T15:38:45.081Z,23.50
2022-07-26T15:41:14.424Z,23.50
2022-07-26T15:43:43.888Z,23.50
2022-07-26T15:46:12.357Z,23.50
2022-07-26T15:48:42.146Z,23.40
2022-07-26T15:51:10.563Z,23.40
2022-07-26T15:53:44.407Z,23.50
2022-07-26T15:56:16.254Z,23.50
2022-07-26T15:58:44.934Z,23.40
2022-07-26T16:01:14.111Z,23.50
2022-07-26T16:03:42.101Z,23.40
2022-07-26T16:06:09.998Z,23.30
2022-07-26T16:08:52.763Z,23.40
2022-07-26T16:11:27.132Z,23.30
2022-07-26T16:14:01.734Z,23.30
2022-07-26T16:16:30.282Z,23.20
2022-07-26T16:18:58.288Z,23.20
2022-07-26T16:21:26.147Z,23.00
2022-07-26T16:23:54.069Z,23.10
2022-07-26T16:26:22.036Z,23.00
2022-07-26T16:28:51.327Z,23.10
2022-07-26T16:31:19.329Z,23.20
2022-07-26T16:33:47.288Z,23.20
2022-07-26T16:36:15.884Z,23.30
2022-07-26T16:38:43.814Z,23.30
2022-07-26T16:41:11.692Z,23.20
2022-07-26T16:43:39.549Z,23.30
2022-07-26T16:46:08.790Z,23.30
2022-07-26T16:48:36.794Z,23.20
2022-07-26T16:51:04.791Z,23.30
2022-07-26T16:53:32.790Z,23.30
2022-07-26T16:56:00.939Z,23.10
2022-07-26T16:58:28.837Z,23.10
2022-07-26T17:00:56.793Z,23.10
2022-07-26T17:03:26.159Z,23.10
2022-07-26T17:05:54.052Z,23.00
2022-07-26T17:08:22.857Z,23.00
2022-07-26T17:10:50.690Z,23.00
2022-07-26T17:13:18.648Z,23.10
2022-07-26T17:15:46.595Z,23.10
2022-07-26T17:18:14.602Z,23.00
2022-07-26T17:20:43.875Z,22.90
2022-07-26T17:23:11.751Z,22.90
2022-07-26T17:25:39.619Z,23.00
2022-07-26T17:28:07.446Z,22.90
2022-07-26T17:30:35.323Z,22.90
2022-07-26T17:33:03.231Z,22.90
2022-07-26T17:35:31.137Z,22.90
2022-07-26T17:38:00.377Z,23.00
2022-07-26T17:40:29.377Z,23.00
2022-07-26T17:42:57.626Z,23.00
2022-07-26T17:45:25.447Z,23.00
2022-07-26T17:47:53.311Z,23.00
2022-07-26T17:50:38.263Z,22.90
2022-07-26T17:53:07.939Z,22.90
2022-07-26T17:55:35.768Z,23.00
2022-07-26T17:58:03.613Z,22.90
2022-07-26T18:00:31.562Z,22.90
2022-07-26T18:02:59.426Z,22.60
2022-07-26T18:05:34.881Z,22.70
2022-07-26T18:08:05.101Z,22.50
2022-07-26T18:10:34.340Z,22.60
2022-07-26T18:13:02.167Z,22.30
2022-07-26T18:15:30.021Z,22.20
2022-07-26T18:17:57.880Z,22.10
2022-07-26T18:20:25.799Z,22.00
2022-07-26T18:22:54.646Z,22.10
2022-07-26T18:25:22.542Z,22.00
2022-07-26T18:27:53.845Z,22.00
2022-07-26T18:30:21.786Z,21.90
2022-07-26T18:32:49.708Z,21.80
2022-07-26T18:35:17.603Z,21.80
2022-07-26T18:37:46.615Z,21.80
2022-07-26T18:40:14.497Z,21.70
2022-07-26T18:42:42.560Z,21.70
2022-07-26T18:45:11.977Z,21.70
2022-07-26T18:47:39.865Z,21.60
2022-07-26T18:50:09.051Z,21.50
2022-07-26T18:52:37.231Z,21.40
2022-07-26T18:55:07.601Z,21.50
2022-07-26T18:57:35.716Z,21.50
2022-07-26T19:00:03.791Z,21.40
2022-07-26T19:02:32.984Z,21.40
2022-07-26T19:05:00.843Z,21.30
2022-07-26T19:07:28.791Z,21.30
2022-07-26T19:09:58.778Z,21.30
2022-07-26T19:12:27.327Z,21.20
2022-07-26T19:14:55.200Z,21.20
2022-07-26T19:17:23.070Z,21.20
2022-07-26T19:19:52.460Z,21.20
2022-07-26T19:22:20.694Z,21.20
2022-07-26T19:24:48.746Z,21.10
2022-07-26T19:27:16.906Z,20.90
2022-07-26T19:29:45.070Z,20.90
2022-07-26T19:32:12.977Z,20.80
2022-07-26T19:34:40.931Z,20.80
2022-07-26T19:37:10.171Z,20.80
2022-07-26T19:39:38.043Z,20.70
2022-07-26T19:42:06.053Z,20.70
2022-07-26T19:44:33.993Z,20.60
2022-07-26T19:47:01.842Z,20.60
2022-07-26T19:49:29.955Z,20.60
2022-07-26T19:51:58.092Z,20.70
2022-07-26T19:54:28.339Z,20.60
2022-07-26T19:56:56.238Z,20.60
2022-07-26T19:59:24.739Z,20.60
2022-07-26T20:01:55.232Z,20.50
2022-07-26T20:04:26.269Z,20.50
2022-07-26T20:06:55.133Z,20.40
2022-07-26T20:09:23.138Z,20.40
2022-07-26T20:11:52.397Z,20.40
2022-07-26T20:14:21.155Z,20.30
2022-07-26T20:16:52.984Z,20.30
2022-07-26T20:19:24.468Z,20.20
2022-07-26T20:21:52.345Z,20.20
2022-07-26T20:24:20.265Z,20.20
2022-07-26T20:26:48.236Z,20.20
2022-07-26T20:29:17.429Z,20.20
2022-07-26T20:31:45.435Z,20.20
2022-07-26T20:34:13.404Z,20.20
2022-07-26T20:36:41.305Z,20.20
2022-07-26T20:39:09.529Z,20.20
2022-07-26T20:41:37.597Z,20.20
2022-07-26T20:44:06.908Z,20.20
2022-07-26T20:46:39.996Z,20.20
2022-07-26T20:49:08.853Z,20.20
2022-07-26T20:51:37.308Z,20.10
2022-07-26T20:54:05.207Z,20.00
2022-07-26T20:56:33.916Z,19.90
2022-07-26T20:59:02.258Z,19.90
2022-07-26T21:01:30.406Z,19.80
2022-07-26T21:04:00.292Z,19.90
2022-07-26T21:06:29.042Z,19.90
2022-07-26T21:08:57.864Z,19.90
2022-07-26T21:11:25.784Z,19.80
2022-07-26T21:13:53.662Z,19.80
2022-07-26T21:16:21.656Z,19.70
2022-07-26T21:18:52.684Z,19.80
2022-07-26T21:21:22.487Z,19.80
2022-07-26T21:23:50.860Z,19.70
2022-07-26T21:26:18.741Z,19.60
2022-07-26T21:28:46.588Z,19.50
2022-07-26T21:31:14.431Z,19.60
2022-07-26T21:33:44.216Z,19.50
2022-07-26T21:36:12.078Z,19.50
2022-07-26T21:38:41.341Z,19.40
2022-07-26T21:41:09.221Z,19.40
2022-07-26T21:43:41.186Z,19.40
2022-07-26T21:46:12.802Z,19.40
2022-07-26T21:48:41.110Z,19.30
2022-07-26T21:51:09.071Z,19.30
2022-07-26T21:53:36.940Z,19.30
2022-07-26T21:56:06.708Z,19.20
2022-07-26T21:58:36.892Z,19.20
2022-07-26T22:01:06.397Z,19.20
2022-07-26T22:03:35.946Z,19.20
2022-07-26T22:06:03.902Z,19.20
2022-07-26T22:08:31.818Z,19.10
2022-07-26T22:10:59.805Z,19.10
2022-07-26T22:13:29.040Z,19.00
2022-07-26T22:15:56.913Z,19.00
2022-07-26T22:18:24.851Z,18.90
2022-07-26T22:20:52.762Z,18.90
2022-07-26T22:23:21.951Z,18.80
2022-07-26T22:25:50.104Z,18.80
2022-07-26T22:28:18.780Z,18.70
2022-07-26T22:30:48.514Z,18.70
2022-07-26T22:33:16.503Z,18.60
2022-07-26T22:35:44.345Z,18.60
2022-07-26T22:38:12.370Z,18.50
2022-07-26T22:40:41.464Z,18.50
2022-07-26T22:43:09.618Z,18.40
2022-07-26T22:45:37.583Z,18.40
2022-07-26T22:48:07.364Z,18.30
2022-07-26T22:50:35.250Z,18.20
2022-07-26T22:53:03.099Z,18.10
2022-07-26T22:55:30.965Z,18.10
2022-07-26T22:57:59.016Z,18.10
2022-07-26T23:00:26.977Z,18.00
2022-07-26T23:02:54.891Z,17.90
2022-07-26T23:05:26.075Z,17.90
2022-07-26T23:08:36.780Z,17.80
2022-07-26T23:10:59.781Z,17.80
2022-07-26T23:13:27.643Z,17.70
2022-07-26T23:16:00.317Z,17.70
2022-07-26T23:18:29.823Z,17.70
2022-07-26T23:20:59.308Z,17.60
2022-07-26T23:23:29.583Z,17.50
2022-07-26T23:25:58.393Z,17.50
2022-07-26T23:28:36.872Z,17.40
2022-07-26T23:31:07.241Z,17.30
2022-07-26T23:33:51.473Z,17.40
2022-07-26T23:36:22.870Z,17.30
2022-07-26T23:38:50.938Z,17.20
2022-07-26T23:41:19.291Z,17.20
2022-07-26T23:43:47.183Z,17.10
2022-07-26T23:46:15.088Z,17.10
2022-07-26T23:48:43.044Z,17.00
2022-07-26T23:51:10.916Z,17.00
2022-07-26T23:53:40.167Z,17.00
2022-07-26T23:56:07.994Z,16.90
2022-07-26T23:58:35.834Z,16.90
